EmpreSS Horn Blower — WAZ9629 — position and weather

sailwx.info

Track history (hours):
 
Tides and Currents Weather Stations Pressure Air Temp Water Temp Dewpoint Dewpoint Depression Visibility Wind Speed Wind Dir Waves Ship Positions

EmpreSS Horn Blower

Owner: HORNBLOWER DINING YACHTS, SAN FRANCISCO, CA. More information available from US FCC via Universal Licensing System and Coast Guard Vessel Documentation Center.

Last reported at 2018-Feb-01 22:46 UTC. Time now 2018-Feb-22 04:51 UTC.
Position N 37°47' W 122°17'.
Warning: this ship's position is 20 days out of date.

Length 26 m; draft 2 m.

Type: Passenger vessel. MMSI: 366988170.

Date/timePositionNaut miles runAvg speedWind from/ knotsBaromVisibWave heightAir tempDewpointWater temp
2018-Feb-01 22:46N 37°47' W 122°17'0 0.0
2018-Feb-01 16:54N 37°47' W 122°17'0 0.3
2018-Feb-01 16:30N 37°48' W 122°18'3 6.8
2018-Feb-01 16:00N 37°50' W 122°21'3 6.1
2018-Feb-01 15:30N 37°52' W 122°19'0 0.0
2018-Jan-31 06:36N 37°52' W 122°19'0 0.0
2018-Jan-31 06:30N 37°52' W 122°19'3 6.3
2018-Jan-31 06:00N 37°52' W 122°23'3 6.0
2018-Jan-31 05:30N 37°52' W 122°27'2 3.8
2018-Jan-31 05:00N 37°51' W 122°29'2 4.3
2018-Jan-31 04:30N 37°52' W 122°26'2 3.0
2018-Jan-31 04:00N 37°51' W 122°25'2 3.7
2018-Jan-31 03:30N 37°50' W 122°26'2 3.8
2018-Jan-31 03:00N 37°51' W 122°28'1 1.8
2018-Jan-31 02:30N 37°51' W 122°29'3 6.1
2018-Jan-31 02:00N 37°52' W 122°25'3 6.9
2018-Jan-31 01:30N 37°51' W 122°21'2 3.4
2018-Jan-31 00:59N 37°52' W 122°19'  
Track history (hours):
 
Tides and Currents Weather Stations Pressure Air Temp Water Temp Dewpoint Dewpoint Depression Visibility Wind Speed Wind Dir Waves Ship Positions

EmpreSS Horn Blower

Owner: HORNBLOWER DINING YACHTS, SAN FRANCISCO, CA. More information available from US FCC via Universal Licensing System and Coast Guard Vessel Documentation Center.

Last reported at 2018-Feb-01 22:46 UTC. Time now 2018-Feb-22 04:51 UTC.
Position N 37°47' W 122°17'.
Warning: this ship's position is 20 days out of date.

Length 26 m; draft 2 m.

Type: Passenger vessel. MMSI: 366988170.

Date/timePositionNaut miles runAvg speedWind from/ knotsBaromVisibWave heightAir tempDewpointWater temp
2018-Feb-01 22:46N 37°47' W 122°17'0 0.0
2018-Feb-01 16:54N 37°47' W 122°17'0 0.3
2018-Feb-01 16:30N 37°48' W 122°18'3 6.8
2018-Feb-01 16:00N 37°50' W 122°21'3 6.1
2018-Feb-01 15:30N 37°52' W 122°19'0 0.0
2018-Jan-31 06:36N 37°52' W 122°19'0 0.0
2018-Jan-31 06:30N 37°52' W 122°19'3 6.3
2018-Jan-31 06:00N 37°52' W 122°23'3 6.0
2018-Jan-31 05:30N 37°52' W 122°27'2 3.8
2018-Jan-31 05:00N 37°51' W 122°29'2 4.3
2018-Jan-31 04:30N 37°52' W 122°26'2 3.0
2018-Jan-31 04:00N 37°51' W 122°25'2 3.7
2018-Jan-31 03:30N 37°50' W 122°26'2 3.8
2018-Jan-31 03:00N 37°51' W 122°28'1 1.8
2018-Jan-31 02:30N 37°51' W 122°29'3 6.1
2018-Jan-31 02:00N 37°52' W 122°25'3 6.9
2018-Jan-31 01:30N 37°51' W 122°21'2 3.4
2018-Jan-31 00:59N 37°52' W 122°19'  

Dump ship's entire track history